createdAt,value
2019-01-28T00:01:39.035Z,1.10
2019-01-28T00:04:10.256Z,1.10
2019-01-28T00:06:41.521Z,1.20
2019-01-28T00:09:12.614Z,1.20
2019-01-28T00:11:43.672Z,1.20
2019-01-28T00:14:14.746Z,1.30
2019-01-28T00:16:45.780Z,1.40
2019-01-28T00:19:16.886Z,1.40
2019-01-28T00:21:47.927Z,1.40
2019-01-28T00:24:18.982Z,1.50
2019-01-28T00:26:50.048Z,1.50
2019-01-28T00:29:21.100Z,1.50
2019-01-28T00:31:52.153Z,1.50
2019-01-28T00:34:23.430Z,1.50
2019-01-28T00:36:54.490Z,1.50
2019-01-28T00:39:25.546Z,1.50
2019-01-28T00:41:56.614Z,1.50
2019-01-28T00:44:27.650Z,1.50
2019-01-28T00:46:58.695Z,1.50
2019-01-28T00:49:30.060Z,1.40
2019-01-28T00:52:01.446Z,1.40
2019-01-28T00:54:32.574Z,1.40
2019-01-28T00:57:03.603Z,1.40
2019-01-28T00:59:34.730Z,1.30
2019-01-28T01:02:05.959Z,1.30
2019-01-28T01:04:37.043Z,1.30
2019-01-28T01:07:08.082Z,1.30
2019-01-28T01:09:39.173Z,1.20
2019-01-28T01:12:10.204Z,1.20
2019-01-28T01:14:41.310Z,1.20
2019-01-28T01:17:12.356Z,1.20
2019-01-28T01:19:43.538Z,1.20
2019-01-28T01:22:15.554Z,1.20
2019-01-28T01:24:47.601Z,1.30
2019-01-28T01:27:18.715Z,1.30
2019-01-28T01:29:49.776Z,1.20
2019-01-28T01:32:20.902Z,1.30
2019-01-28T01:34:53.062Z,1.20
2019-01-28T01:37:24.122Z,1.10
2019-01-28T01:39:55.180Z,1.00
2019-01-28T01:42:26.216Z,0.90
2019-01-28T01:44:57.304Z,0.90
2019-01-28T01:47:28.373Z,0.90
2019-01-28T01:49:59.414Z,0.80
2019-01-28T01:52:30.652Z,0.90
2019-01-28T01:55:01.704Z,0.90
2019-01-28T01:57:32.760Z,0.90
2019-01-28T02:00:05.264Z,0.90
2019-01-28T02:02:37.789Z,0.80
2019-01-28T02:05:08.893Z,0.90
2019-01-28T02:07:39.942Z,0.90
2019-01-28T02:10:13.053Z,0.90
2019-01-28T02:12:44.100Z,0.90
2019-01-28T02:15:17.357Z,0.90
2019-01-28T02:17:48.456Z,0.90
2019-01-28T02:20:19.538Z,0.80
2019-01-28T02:22:50.572Z,0.80
2019-01-28T02:25:21.637Z,0.80
2019-01-28T02:27:52.690Z,0.80
2019-01-28T02:30:23.716Z,0.80
2019-01-28T02:32:54.761Z,0.80
2019-01-28T02:35:25.854Z,0.80
2019-01-28T02:37:56.936Z,0.80
2019-01-28T02:40:27.987Z,0.80
2019-01-28T02:42:59.026Z,0.70
2019-01-28T02:45:30.079Z,0.70
2019-01-28T02:48:01.264Z,0.60
2019-01-28T02:50:32.373Z,0.60
2019-01-28T02:53:03.762Z,0.60
2019-01-28T02:55:35.135Z,0.60
2019-01-28T02:58:06.212Z,0.60
2019-01-28T03:00:37.265Z,0.60
2019-01-28T03:03:08.378Z,0.60
2019-01-28T03:05:39.421Z,0.50
2019-01-28T03:08:10.473Z,0.50
2019-01-28T03:10:41.532Z,0.60
2019-01-28T03:13:12.660Z,0.60
2019-01-28T03:15:43.772Z,0.60
2019-01-28T03:18:14.844Z,0.70
2019-01-28T03:20:45.977Z,0.60
2019-01-28T03:23:17.930Z,0.60
2019-01-28T03:25:49.123Z,0.60
2019-01-28T03:28:20.202Z,0.70
2019-01-28T03:30:51.295Z,0.70
2019-01-28T03:33:22.348Z,0.70
2019-01-28T03:35:53.438Z,0.70
2019-01-28T03:38:24.487Z,0.70
2019-01-28T03:40:56.532Z,0.70
2019-01-28T03:43:27.593Z,0.70
2019-01-28T03:45:58.647Z,0.80
2019-01-28T03:48:29.712Z,0.80
2019-01-28T03:51:00.748Z,0.80
2019-01-28T03:53:32.173Z,0.80
2019-01-28T03:56:03.228Z,0.80
2019-01-28T03:58:34.324Z,0.80
2019-01-28T04:01:05.637Z,0.80
2019-01-28T04:03:36.739Z,0.80
2019-01-28T04:06:07.832Z,0.80
2019-01-28T04:08:38.914Z,0.90
2019-01-28T04:11:09.993Z,0.90
2019-01-28T04:13:41.045Z,0.90
2019-01-28T04:16:12.140Z,0.90
2019-01-28T04:18:43.213Z,0.90
2019-01-28T04:21:14.341Z,0.90
2019-01-28T04:23:45.417Z,0.90
2019-01-28T04:26:16.483Z,0.80
2019-01-28T04:28:47.537Z,0.80
2019-01-28T04:31:18.714Z,0.80
2019-01-28T04:33:49.755Z,0.80
2019-01-28T04:36:20.796Z,0.80
2019-01-28T04:38:51.826Z,0.80
2019-01-28T04:41:22.887Z,0.80
2019-01-28T04:43:53.948Z,0.80
2019-01-28T04:46:25.027Z,0.80
2019-01-28T04:48:56.053Z,0.90
2019-01-28T04:51:27.154Z,0.90
2019-01-28T04:53:58.301Z,0.80
2019-01-28T04:56:29.404Z,0.90
2019-01-28T04:59:00.445Z,0.90
2019-01-28T05:01:31.506Z,1.00
2019-01-28T05:04:02.582Z,0.90
2019-01-28T05:06:33.637Z,0.80
2019-01-28T05:09:07.986Z,0.80
2019-01-28T05:11:39.312Z,0.80
2019-01-28T05:14:10.351Z,0.80
2019-01-28T05:16:42.391Z,0.80
2019-01-28T05:19:13.443Z,0.80
2019-01-28T05:21:44.543Z,0.80
2019-01-28T05:24:15.671Z,0.80
2019-01-28T05:26:46.764Z,0.80
2019-01-28T05:29:17.806Z,0.80
2019-01-28T05:31:48.864Z,0.80
2019-01-28T05:34:19.916Z,0.80
2019-01-28T05:36:51.000Z,0.80
2019-01-28T05:39:22.055Z,0.80
2019-01-28T05:41:53.112Z,0.90
2019-01-28T05:44:24.162Z,0.90
2019-01-28T05:46:55.220Z,0.80
2019-01-28T05:49:26.272Z,0.80
2019-01-28T05:51:57.422Z,0.90
2019-01-28T05:54:29.770Z,0.90
2019-01-28T05:57:01.066Z,1.00
2019-01-28T05:59:32.205Z,0.90
2019-01-28T06:02:03.351Z,0.90
2019-01-28T06:04:34.385Z,0.90
2019-01-28T06:07:05.460Z,0.90
2019-01-28T06:09:36.808Z,0.90
2019-01-28T06:12:07.914Z,0.90
2019-01-28T06:14:39.007Z,0.90
2019-01-28T06:17:10.080Z,0.90
2019-01-28T06:19:41.117Z,0.90
2019-01-28T06:22:12.181Z,0.90
2019-01-28T06:24:43.428Z,1.00
2019-01-28T06:27:14.514Z,1.00
2019-01-28T06:29:45.576Z,1.00
2019-01-28T06:32:16.816Z,1.00
2019-01-28T06:34:48.260Z,1.00
2019-01-28T06:37:19.376Z,1.00
2019-01-28T06:39:50.632Z,1.00
2019-01-28T06:42:21.701Z,1.00
2019-01-28T06:44:52.746Z,1.00
2019-01-28T06:47:23.848Z,1.00
2019-01-28T06:49:54.918Z,1.00
2019-01-28T06:52:25.973Z,1.00
2019-01-28T06:54:57.234Z,1.00
2019-01-28T06:57:28.303Z,1.00
2019-01-28T06:59:59.369Z,1.00
2019-01-28T07:02:30.467Z,1.00
2019-01-28T07:05:01.516Z,1.00
2019-01-28T07:07:32.596Z,1.00
2019-01-28T07:10:04.860Z,1.00
2019-01-28T07:12:35.936Z,1.00
2019-01-28T07:15:08.652Z,1.00
2019-01-28T07:17:39.878Z,1.10
2019-01-28T07:20:14.700Z,1.10
2019-01-28T07:22:45.778Z,1.00
2019-01-28T07:25:16.840Z,1.00
2019-01-28T07:27:48.560Z,1.10
2019-01-28T07:30:28.784Z,1.10
2019-01-28T07:33:00.115Z,1.10
2019-01-28T07:35:31.376Z,1.10
2019-01-28T07:38:02.514Z,1.10
2019-01-28T07:40:33.628Z,1.10
2019-01-28T07:43:04.738Z,1.10
2019-01-28T07:45:45.035Z,1.20
2019-01-28T07:48:10.653Z,1.20
2019-01-28T07:50:41.704Z,1.20
2019-01-28T07:53:12.777Z,1.20
2019-01-28T07:55:44.172Z,1.20
2019-01-28T07:58:15.258Z,1.10
2019-01-28T08:00:46.315Z,1.20
2019-01-28T08:03:17.453Z,1.20
2019-01-28T08:05:49.104Z,1.20
2019-01-28T08:08:20.186Z,1.20
2019-01-28T08:10:51.228Z,1.20
2019-01-28T08:13:22.296Z,1.30
2019-01-28T08:15:53.336Z,1.30
2019-01-28T08:18:24.428Z,1.20
2019-01-28T08:20:55.522Z,1.30
2019-01-28T08:23:26.620Z,1.30
2019-01-28T08:25:57.697Z,1.20
2019-01-28T08:28:28.736Z,1.30
2019-01-28T08:30:59.824Z,1.30
2019-01-28T08:33:30.892Z,1.30
2019-01-28T08:36:02.281Z,1.30
2019-01-28T08:38:33.326Z,1.40
2019-01-28T08:41:04.588Z,1.50
2019-01-28T08:43:35.634Z,1.50
2019-01-28T08:46:06.746Z,1.50
2019-01-28T08:48:37.800Z,1.60
2019-01-28T08:51:08.836Z,1.60
2019-01-28T08:53:39.928Z,1.60
2019-01-28T08:56:16.632Z,1.60
2019-01-28T08:58:43.910Z,1.50
2019-01-28T09:01:14.999Z,1.50
2019-01-28T09:03:46.053Z,1.50
2019-01-28T09:06:17.152Z,1.50
2019-01-28T09:08:48.248Z,1.50
2019-01-28T09:11:19.348Z,1.60
2019-01-28T09:13:50.462Z,1.50
2019-01-28T09:16:21.622Z,1.60
2019-01-28T09:18:52.700Z,1.60
2019-01-28T09:21:23.727Z,1.50
2019-01-28T09:23:54.841Z,1.50
2019-01-28T09:26:25.928Z,1.40
2019-01-28T09:28:56.982Z,1.60
2019-01-28T09:31:28.100Z,1.60
2019-01-28T09:33:59.230Z,1.60
2019-01-28T09:36:30.400Z,1.80
2019-01-28T09:39:01.491Z,1.90
2019-01-28T09:41:35.692Z,2.20
2019-01-28T09:44:07.528Z,2.30
2019-01-28T09:46:38.573Z,2.30
2019-01-28T09:49:09.660Z,2.40
2019-01-28T09:51:40.767Z,2.40
2019-01-28T09:54:12.120Z,2.70
2019-01-28T09:56:43.414Z,2.70
2019-01-28T09:59:14.469Z,2.80
2019-01-28T10:01:45.528Z,3.00
2019-01-28T10:04:16.622Z,3.00
2019-01-28T10:06:47.800Z,3.10
2019-01-28T10:09:18.995Z,3.50
2019-01-28T10:11:50.030Z,3.50
2019-01-28T10:14:21.116Z,3.50
2019-01-28T10:16:52.392Z,3.30
2019-01-28T10:19:23.576Z,3.60
2019-01-28T10:21:54.916Z,3.60
2019-01-28T10:24:26.218Z,3.80
2019-01-28T10:26:57.536Z,3.60
2019-01-28T10:29:28.716Z,3.60
2019-01-28T10:31:59.817Z,3.40
2019-01-28T10:34:30.952Z,3.50
2019-01-28T10:37:02.220Z,3.40
2019-01-28T10:39:33.326Z,3.20
2019-01-28T10:42:09.679Z,3.10
2019-01-28T10:44:37.610Z,3.20
2019-01-28T10:47:08.952Z,3.30
2019-01-28T10:49:40.318Z,3.60
2019-01-28T10:52:11.388Z,3.50
2019-01-28T10:54:42.562Z,3.30
2019-01-28T10:57:13.954Z,3.00
2019-01-28T10:59:44.996Z,3.00
2019-01-28T11:02:16.045Z,3.00
2019-01-28T11:05:06.423Z,3.10
2019-01-28T11:07:49.332Z,3.20
2019-01-28T11:10:21.161Z,3.40
2019-01-28T11:12:52.451Z,3.10
2019-01-28T11:15:45.385Z,3.10
2019-01-28T11:18:28.936Z,3.10
2019-01-28T11:21:00.472Z,3.30
2019-01-28T11:23:32.282Z,3.60
2019-01-28T11:26:03.886Z,3.80
2019-01-28T11:28:35.289Z,3.50
2019-01-28T11:31:11.128Z,3.70
2019-01-28T11:33:42.446Z,3.40
2019-01-28T11:36:13.614Z,3.40
2019-01-28T11:38:44.771Z,3.40
2019-01-28T11:41:16.152Z,3.10
2019-01-28T11:43:47.869Z,3.10
2019-01-28T11:46:19.209Z,3.00
2019-01-28T11:48:50.517Z,2.80
2019-01-28T11:51:21.648Z,2.70
2019-01-28T11:53:53.838Z,2.80
2019-01-28T11:56:24.904Z,2.70
2019-01-28T11:58:56.157Z,2.70
2019-01-28T12:01:34.310Z,2.40
2019-01-28T12:04:06.206Z,2.50
2019-01-28T12:06:37.494Z,2.50
2019-01-28T12:09:11.614Z,2.30
2019-01-28T12:11:42.666Z,2.20
2019-01-28T12:14:13.754Z,2.30
2019-01-28T12:16:44.794Z,2.20
2019-01-28T12:19:15.888Z,2.30
2019-01-28T12:21:46.966Z,2.20
2019-01-28T12:24:18.787Z,2.10
2019-01-28T12:26:50.088Z,2.20
2019-01-28T12:29:21.156Z,2.20
2019-01-28T12:31:52.288Z,2.10
2019-01-28T12:34:23.560Z,2.00
2019-01-28T12:36:54.742Z,1.90
2019-01-28T12:39:25.812Z,1.90
2019-01-28T12:41:56.889Z,2.00
2019-01-28T12:44:28.200Z,2.00
2019-01-28T12:46:59.373Z,2.10
2019-01-28T12:49:30.492Z,2.10
2019-01-28T12:52:01.557Z,2.20
2019-01-28T12:54:32.721Z,2.30
2019-01-28T12:57:04.078Z,2.30
2019-01-28T12:59:35.472Z,2.40
2019-01-28T13:02:06.548Z,2.40
2019-01-28T13:04:42.208Z,2.50
2019-01-28T13:07:10.750Z,2.60
2019-01-28T13:09:41.824Z,2.60
2019-01-28T13:12:12.916Z,2.50
2019-01-28T13:14:44.039Z,2.50
2019-01-28T13:17:16.060Z,2.50
2019-01-28T13:19:47.135Z,2.50
2019-01-28T13:22:18.191Z,2.40
2019-01-28T13:24:50.416Z,2.40
2019-01-28T13:27:21.580Z,2.40
2019-01-28T13:29:52.672Z,2.40
2019-01-28T13:32:23.724Z,2.50
2019-01-28T13:34:55.260Z,2.30
2019-01-28T13:37:26.489Z,2.30
2019-01-28T13:39:57.652Z,2.30
2019-01-28T13:42:28.870Z,2.20
2019-01-28T13:45:01.074Z,2.20
2019-01-28T13:47:32.530Z,2.30
2019-01-28T13:50:06.154Z,2.20
2019-01-28T13:52:37.256Z,2.10
2019-01-28T13:55:09.352Z,2.10
2019-01-28T13:57:40.430Z,2.00
2019-01-28T14:00:16.332Z,2.00
2019-01-28T14:02:47.438Z,2.00
2019-01-28T14:05:18.814Z,2.00
2019-01-28T14:07:50.026Z,2.00
2019-01-28T14:10:21.393Z,1.80
2019-01-28T14:12:52.692Z,1.90
2019-01-28T14:15:32.048Z,1.90
2019-01-28T14:18:03.437Z,1.80
2019-01-28T14:20:35.630Z,1.80
2019-01-28T14:23:08.548Z,1.70
2019-01-28T14:25:39.633Z,1.80
2019-01-28T14:28:12.104Z,1.70
2019-01-28T14:30:48.617Z,1.70
2019-01-28T14:33:19.860Z,1.60
2019-01-28T14:35:50.984Z,1.60
2019-01-28T14:38:33.384Z,1.60
2019-01-28T14:41:04.467Z,1.50
2019-01-28T14:43:35.564Z,1.50
2019-01-28T14:46:06.612Z,1.50
2019-01-28T14:48:37.706Z,1.50
2019-01-28T14:51:09.263Z,1.50
2019-01-28T14:53:40.814Z,1.40
2019-01-28T14:56:11.945Z,1.40
2019-01-28T14:58:43.120Z,1.40
2019-01-28T15:01:14.407Z,1.30
2019-01-28T15:03:45.612Z,1.20
2019-01-28T15:06:17.467Z,1.20
2019-01-28T15:08:48.686Z,1.10
2019-01-28T15:11:19.867Z,1.10
2019-01-28T15:13:50.934Z,1.10
2019-01-28T15:16:22.000Z,1.00
2019-01-28T15:18:53.123Z,0.90
2019-01-28T15:21:24.294Z,0.90
2019-01-28T15:23:55.425Z,0.80
2019-01-28T15:26:26.737Z,0.80
2019-01-28T15:28:57.994Z,0.80
2019-01-28T15:31:29.204Z,0.80
2019-01-28T15:34:00.397Z,0.70
2019-01-28T15:36:31.547Z,0.70
2019-01-28T15:39:02.652Z,0.70
2019-01-28T15:41:35.366Z,0.60
2019-01-28T15:44:06.780Z,0.60
2019-01-28T15:46:37.835Z,0.70
2019-01-28T15:49:09.290Z,0.60
2019-01-28T15:51:40.492Z,0.60
2019-01-28T15:54:11.872Z,0.60
2019-01-28T15:56:42.996Z,0.60
2019-01-28T15:59:14.290Z,0.60
2019-01-28T16:01:45.676Z,0.60
2019-01-28T16:04:16.810Z,0.60
2019-01-28T16:06:48.582Z,0.60
2019-01-28T16:09:19.780Z,0.60
2019-01-28T16:11:51.696Z,0.60
2019-01-28T16:14:22.827Z,0.50
2019-01-28T16:16:53.892Z,0.50
2019-01-28T16:19:24.984Z,0.50
2019-01-28T16:21:56.431Z,0.50
2019-01-28T16:24:28.730Z,0.50
2019-01-28T16:26:59.779Z,0.50
2019-01-28T16:29:30.978Z,0.50
2019-01-28T16:32:02.136Z,0.50
2019-01-28T16:34:33.384Z,0.50
2019-01-28T16:37:04.580Z,0.50
2019-01-28T16:39:36.042Z,0.60
2019-01-28T16:42:07.408Z,0.50
2019-01-28T16:44:38.864Z,0.50
2019-01-28T16:47:09.920Z,0.60
2019-01-28T16:49:40.995Z,0.50
2019-01-28T16:52:12.058Z,0.50
2019-01-28T16:54:43.496Z,0.50
2019-01-28T16:57:14.636Z,0.50
2019-01-28T16:59:45.720Z,0.50
2019-01-28T17:02:17.253Z,0.50
2019-01-28T17:04:48.354Z,0.60
2019-01-28T17:07:20.580Z,0.60
2019-01-28T17:09:51.967Z,0.60
2019-01-28T17:12:23.101Z,0.50
2019-01-28T17:14:54.147Z,0.50
2019-01-28T17:17:25.316Z,0.40
2019-01-28T17:19:56.362Z,0.40
2019-01-28T17:22:27.470Z,0.40
2019-01-28T17:24:58.699Z,0.40
2019-01-28T17:27:29.798Z,0.40
2019-01-28T17:30:00.860Z,0.40
2019-01-28T17:32:33.304Z,0.40
2019-01-28T17:35:04.738Z,0.40
2019-01-28T17:37:39.560Z,0.40
2019-01-28T17:40:12.035Z,0.30
2019-01-28T17:42:43.212Z,0.30
2019-01-28T17:45:15.768Z,0.40
2019-01-28T17:47:47.334Z,0.30
2019-01-28T17:50:24.449Z,0.30
2019-01-28T17:52:51.650Z,0.40
2019-01-28T17:55:22.750Z,0.40
2019-01-28T17:57:53.900Z,0.40
2019-01-28T18:00:31.855Z,0.30
2019-01-28T18:03:03.237Z,0.40
2019-01-28T18:05:34.383Z,0.40
2019-01-28T18:08:05.844Z,0.50
2019-01-28T18:10:37.107Z,0.50
2019-01-28T18:13:08.296Z,0.40
2019-01-28T18:15:39.620Z,0.40
2019-01-28T18:18:16.583Z,0.40
2019-01-28T18:20:51.931Z,0.40
2019-01-28T18:23:26.018Z,0.40
2019-01-28T18:25:57.212Z,0.30
2019-01-28T18:28:28.347Z,0.30
2019-01-28T18:30:59.400Z,0.30
2019-01-28T18:33:30.514Z,0.40
2019-01-28T18:36:05.676Z,0.40
2019-01-28T18:38:34.420Z,0.30
2019-01-28T18:41:06.068Z,0.40
2019-01-28T18:43:37.103Z,0.40
2019-01-28T18:46:08.262Z,0.40
2019-01-28T18:48:39.314Z,0.40
2019-01-28T18:51:10.502Z,0.40
2019-01-28T18:53:41.563Z,0.40
2019-01-28T18:56:12.688Z,0.30
2019-01-28T18:58:43.812Z,0.30
2019-01-28T19:01:14.940Z,0.30
2019-01-28T19:03:46.403Z,0.40
2019-01-28T19:06:35.042Z,0.40
2019-01-28T19:09:19.264Z,0.40
2019-01-28T19:12:12.298Z,0.30
2019-01-28T19:14:50.456Z,0.40
2019-01-28T19:17:39.062Z,0.40
2019-01-28T19:20:54.362Z,0.40
2019-01-28T19:23:25.486Z,0.50
2019-01-28T19:25:56.544Z,0.50
2019-01-28T19:28:27.622Z,0.50
2019-01-28T19:30:58.834Z,0.50
2019-01-28T19:33:29.957Z,0.50
2019-01-28T19:36:01.168Z,0.50
2019-01-28T19:38:32.458Z,0.60
2019-01-28T19:41:03.607Z,0.60
2019-01-28T19:43:34.862Z,0.60
2019-01-28T19:46:06.818Z,0.60
2019-01-28T19:48:37.960Z,0.60
2019-01-28T19:51:15.561Z,0.60
2019-01-28T19:53:41.989Z,0.50
2019-01-28T19:56:13.202Z,0.60
2019-01-28T19:58:47.569Z,0.60
2019-01-28T20:01:18.758Z,0.60
2019-01-28T20:03:53.820Z,0.60
2019-01-28T20:06:25.444Z,0.60
2019-01-28T20:08:56.590Z,0.60
2019-01-28T20:11:27.797Z,0.60
2019-01-28T20:13:58.932Z,0.60
2019-01-28T20:16:30.210Z,0.50
2019-01-28T20:19:01.369Z,0.60
2019-01-28T20:21:32.601Z,0.60
2019-01-28T20:24:03.935Z,0.70
2019-01-28T20:26:35.976Z,0.60
2019-01-28T20:29:07.164Z,0.60
2019-01-28T20:31:38.357Z,0.70
2019-01-28T20:34:09.492Z,0.60
2019-01-28T20:36:40.622Z,0.60
2019-01-28T20:39:11.818Z,0.70
2019-01-28T20:41:42.940Z,0.60
2019-01-28T20:44:14.033Z,0.60
2019-01-28T20:46:45.080Z,0.60
2019-01-28T20:49:16.338Z,0.60
2019-01-28T20:51:47.510Z,0.50
2019-01-28T20:54:18.670Z,0.60
2019-01-28T20:56:49.772Z,0.50
2019-01-28T20:59:20.836Z,0.50
2019-01-28T21:01:51.908Z,0.50
2019-01-28T21:04:23.319Z,0.50
2019-01-28T21:06:54.404Z,0.60
2019-01-28T21:09:25.650Z,0.50
2019-01-28T21:11:56.759Z,0.60
2019-01-28T21:14:28.065Z,0.60
2019-01-28T21:16:59.222Z,0.60
2019-01-28T21:19:30.316Z,0.50
2019-01-28T21:22:01.366Z,0.60
2019-01-28T21:24:32.500Z,0.60
2019-01-28T21:27:03.565Z,0.60
2019-01-28T21:29:34.656Z,0.70
2019-01-28T21:32:05.696Z,0.60
2019-01-28T21:34:36.852Z,0.70
2019-01-28T21:37:22.240Z,0.60
2019-01-28T21:39:53.306Z,0.60
2019-01-28T21:42:24.406Z,0.60
2019-01-28T21:44:55.542Z,0.70
2019-01-28T21:47:26.688Z,0.60
2019-01-28T21:49:57.922Z,0.50
2019-01-28T21:52:29.000Z,0.60
2019-01-28T21:55:00.186Z,0.60
2019-01-28T21:57:31.682Z,0.60
2019-01-28T22:00:02.762Z,0.70
2019-01-28T22:02:34.860Z,0.60
2019-01-28T22:05:06.891Z,0.60
2019-01-28T22:07:38.008Z,0.60
2019-01-28T22:10:09.658Z,0.60
2019-01-28T22:12:40.736Z,0.50
2019-01-28T22:15:14.494Z,0.50
2019-01-28T22:17:45.533Z,0.60
2019-01-28T22:20:16.782Z,0.60
2019-01-28T22:22:47.820Z,0.50
2019-01-28T22:25:19.331Z,0.50
2019-01-28T22:27:57.185Z,0.60
2019-01-28T22:30:23.193Z,0.60
2019-01-28T22:32:54.314Z,0.60
2019-01-28T22:35:25.414Z,0.60
2019-01-28T22:37:56.516Z,0.70
2019-01-28T22:40:27.710Z,0.60
2019-01-28T22:42:58.752Z,0.70
2019-01-28T22:45:29.856Z,0.60
2019-01-28T22:48:00.932Z,0.60
2019-01-28T22:50:32.013Z,0.60
2019-01-28T22:53:03.064Z,0.60
2019-01-28T22:55:34.114Z,0.60
2019-01-28T22:58:05.382Z,0.60
2019-01-28T23:00:50.886Z,0.70
2019-01-28T23:03:33.840Z,0.70
2019-01-28T23:06:05.149Z,0.70
2019-01-28T23:08:36.242Z,0.70
2019-01-28T23:11:07.458Z,0.80
2019-01-28T23:13:38.528Z,0.70
2019-01-28T23:16:09.580Z,0.80
2019-01-28T23:18:40.644Z,0.70
2019-01-28T23:21:11.713Z,0.70
2019-01-28T23:23:43.830Z,0.70
2019-01-28T23:26:15.008Z,0.70
2019-01-28T23:28:46.149Z,0.60
2019-01-28T23:31:17.428Z,0.60
2019-01-28T23:33:49.957Z,0.60
2019-01-28T23:36:21.404Z,0.60
2019-01-28T23:38:52.448Z,0.60
2019-01-28T23:41:23.578Z,0.50
2019-01-28T23:43:54.601Z,0.50
2019-01-28T23:46:26.896Z,0.50
2019-01-28T23:48:57.940Z,0.60
2019-01-28T23:51:29.028Z,0.50
2019-01-28T23:54:00.133Z,0.50
2019-01-28T23:56:31.218Z,0.50
2019-01-28T23:59:02.448Z,0.50
